Time;durP1;ratioP1;P1;durP2;ratioP2;P2;SDS_P1;SDS_P2;PMS_P1;PMS_P2;Temp;Humidity;BMP_temperature;BMP_pressure;BME280_temperature;BME280_humidity;BME280_pressure;Samples;Min_cycle;Max_cycle;Signal;HPM_P1;HPM_P2
2022/11/09 00:00:13;;;;;;;0.55;0.55;;;;;;;;;;10429604;28;20258;-73
2022/11/09 00:05:14;;;;;;;0.50;0.50;;;;;;;;;;10446382;28;20248;-72
2022/11/09 00:10:15;;;;;;;0.73;0.73;;;;;;;;;;10434066;28;20254;-73
2022/11/09 00:15:16;;;;;;;0.90;0.70;;;;;;;;;;10433958;28;20194;-73
2022/11/09 00:20:17;;;;;;;1.65;0.68;;;;;;;;;;10442928;28;20226;-73
2022/11/09 00:25:18;;;;;;;1.30;0.60;;;;;;;;;;10421098;28;20200;-73
2022/11/09 00:30:20;;;;;;;0.60;0.60;;;;;;;;;;10420238;28;20245;-73
2022/11/09 00:35:22;;;;;;;0.82;0.82;;;;;;;;;;10415906;28;20215;-72
2022/11/09 00:40:23;;;;;;;1.20;0.80;;;;;;;;;;10400112;28;20297;-73
2022/11/09 00:45:24;;;;;;;0.60;0.60;;;;;;;;;;10438569;28;20218;-73
2022/11/09 00:50:25;;;;;;;0.60;0.60;;;;;;;;;;10411398;28;20225;-73
2022/11/09 00:55:27;;;;;;;3.03;1.02;;;;;;;;;;10432447;28;20218;-73
2022/11/09 01:00:28;;;;;;;0.82;0.82;;;;;;;;;;10421698;28;20710;-72
2022/11/09 01:05:29;;;;;;;0.70;0.70;;;;;;;;;;10439463;28;20225;-73
2022/11/09 01:10:31;;;;;;;0.90;0.90;;;;;;;;;;10438194;28;20231;-73
2022/11/09 01:15:32;;;;;;;0.82;0.80;;;;;;;;;;10419864;28;20642;-73
2022/11/09 01:20:33;;;;;;;0.70;0.70;;;;;;;;;;10453451;28;20227;-73
2022/11/09 01:25:34;;;;;;;2.25;0.90;;;;;;;;;;10438872;28;20222;-73
2022/11/09 01:30:40;;;;;;;2.17;0.65;;;;;;;;;;10432312;28;20258;-73
2022/11/09 01:35:41;;;;;;;4.13;0.82;;;;;;;;;;10439619;28;20538;-73
2022/11/09 01:40:42;;;;;;;0.70;0.70;;;;;;;;;;10454132;28;20748;-73
2022/11/09 01:45:47;;;;;;;1.58;0.88;;;;;;;;;;10438149;28;20219;-73
2022/11/09 01:50:51;;;;;;;0.70;0.70;;;;;;;;;;10453553;28;20214;-73
2022/11/09 01:55:54;;;;;;;0.60;0.60;;;;;;;;;;10432937;28;20210;-72
2022/11/09 02:00:56;;;;;;;0.60;0.60;;;;;;;;;;10419209;28;20309;-73
2022/11/09 02:06:00;;;;;;;1.50;0.73;;;;;;;;;;10410738;28;20211;-72
2022/11/09 02:11:08;;;;;;;2.83;1.35;;;;;;;;;;10452309;28;20223;-72
2022/11/09 02:16:10;;;;;;;0.60;0.60;;;;;;;;;;10429922;28;20242;-73
2022/11/09 02:21:11;;;;;;;0.70;0.70;;;;;;;;;;10432927;28;20230;-73
2022/11/09 02:26:15;;;;;;;3.50;0.85;;;;;;;;;;10412188;28;20229;-73
2022/11/09 02:31:17;;;;;;;0.60;0.60;;;;;;;;;;10425778;28;20243;-73
2022/11/09 02:36:21;;;;;;;1.15;0.70;;;;;;;;;;10452588;28;20704;-72
2022/11/09 02:41:23;;;;;;;0.85;0.50;;;;;;;;;;10451230;28;20203;-73
2022/11/09 02:46:29;;;;;;;1.13;0.55;;;;;;;;;;10436874;28;20222;-74
2022/11/09 02:51:30;;;;;;;2.42;0.55;;;;;;;;;;10493630;28;20329;-73
2022/11/09 02:56:31;;;;;;;0.40;0.40;;;;;;;;;;10447224;28;20206;-73
2022/11/09 03:01:34;;;;;;;1.20;0.50;;;;;;;;;;10490750;28;20210;-73
2022/11/09 03:06:35;;;;;;;0.57;0.57;;;;;;;;;;10473509;28;20222;-73
2022/11/09 03:11:41;;;;;;;2.05;0.80;;;;;;;;;;10454470;28;20688;-73
2022/11/09 03:16:45;;;;;;;0.82;0.63;;;;;;;;;;10489197;28;20233;-74
2022/11/09 03:21:49;;;;;;;0.70;0.70;;;;;;;;;;10455376;28;20562;-73
2022/11/09 03:26:50;;;;;;;0.50;0.50;;;;;;;;;;10475786;28;20241;-74
2022/11/09 03:31:51;;;;;;;0.98;0.60;;;;;;;;;;10476717;28;20221;-74
2022/11/09 03:36:53;;;;;;;1.75;0.57;;;;;;;;;;10487799;28;20206;-74
2022/11/09 03:41:55;;;;;;;2.05;0.50;;;;;;;;;;10447859;28;20218;-73
2022/11/09 03:46:56;;;;;;;0.40;0.40;;;;;;;;;;10470506;28;20628;-73
2022/11/09 03:51:57;;;;;;;0.68;0.40;;;;;;;;;;10491447;28;20291;-72
2022/11/09 03:56:58;;;;;;;0.80;0.43;;;;;;;;;;10468793;28;20213;-71
2022/11/09 04:01:59;;;;;;;0.43;0.43;;;;;;;;;;10465023;28;20207;-73
2022/11/09 04:07:01;;;;;;;0.50;0.50;;;;;;;;;;10449495;28;20232;-74
2022/11/09 04:12:02;;;;;;;0.73;0.40;;;;;;;;;;10458525;28;20228;-74
2022/11/09 04:17:03;;;;;;;0.50;0.50;;;;;;;;;;10475665;28;20603;-73
2022/11/09 04:22:04;;;;;;;0.50;0.50;;;;;;;;;;10493585;28;20767;-74
2022/11/09 04:27:06;;;;;;;0.50;0.50;;;;;;;;;;10480374;28;20282;-74
2022/11/09 04:32:07;;;;;;;1.85;0.60;;;;;;;;;;10469846;28;20228;-73
2022/11/09 04:37:08;;;;;;;0.82;0.68;;;;;;;;;;10459004;28;20225;-74
2022/11/09 04:42:09;;;;;;;0.70;0.70;;;;;;;;;;10477952;28;20753;-73
2022/11/09 04:47:11;;;;;;;1.67;0.70;;;;;;;;;;10475164;28;20304;-74
2022/11/09 04:52:12;;;;;;;0.60;0.60;;;;;;;;;;10489006;28;20213;-74
2022/11/09 04:57:13;;;;;;;0.52;0.52;;;;;;;;;;10468876;28;20206;-74
2022/11/09 05:02:14;;;;;;;0.60;0.60;;;;;;;;;;10478219;28;20209;-73
2022/11/09 05:07:15;;;;;;;0.80;0.77;;;;;;;;;;10462989;28;20226;-75
2022/11/09 05:12:16;;;;;;;2.05;0.70;;;;;;;;;;10493357;28;20214;-74
2022/11/09 05:17:17;;;;;;;0.60;0.60;;;;;;;;;;10451674;28;20225;-75
2022/11/09 05:27:38;;;;;;;0.70;0.60;;;;;;;;;;10453412;28;20800;-73
2022/11/09 05:32:39;;;;;;;0.55;0.55;;;;;;;;;;10458600;28;20214;-73
2022/11/09 05:37:40;;;;;;;0.63;0.63;;;;;;;;;;10462489;28;20208;-73
2022/11/09 05:42:42;;;;;;;2.40;0.75;;;;;;;;;;10478704;28;20222;-73
2022/11/09 05:47:43;;;;;;;0.95;0.80;;;;;;;;;;10458110;28;20602;-73
2022/11/09 05:52:45;;;;;;;0.80;0.80;;;;;;;;;;10481667;28;20206;-73
2022/11/09 05:57:46;;;;;;;0.95;0.73;;;;;;;;;;10454126;28;20218;-73
2022/11/09 06:02:47;;;;;;;1.08;1.00;;;;;;;;;;10456186;28;20218;-73
2022/11/09 06:07:48;;;;;;;3.60;1.15;;;;;;;;;;10473460;28;20664;-73
2022/11/09 06:12:50;;;;;;;0.80;0.80;;;;;;;;;;10452356;28;20234;-73
2022/11/09 06:17:55;;;;;;;1.13;0.70;;;;;;;;;;10474841;28;20233;-73
2022/11/09 06:22:57;;;;;;;0.80;0.80;;;;;;;;;;10479865;28;20244;-72
2022/11/09 06:27:58;;;;;;;0.70;0.70;;;;;;;;;;10475936;28;21204;-73
2022/11/09 06:33:00;;;;;;;3.17;1.00;;;;;;;;;;10478188;28;20218;-73
2022/11/09 06:38:02;;;;;;;0.93;0.93;;;;;;;;;;10490481;28;20736;-72
2022/11/09 06:43:03;;;;;;;1.50;1.00;;;;;;;;;;10496057;28;20214;-73
2022/11/09 06:48:05;;;;;;;1.40;1.30;;;;;;;;;;10486208;28;20230;-73
2022/11/09 06:53:07;;;;;;;3.03;1.30;;;;;;;;;;10462762;28;20577;-73
2022/11/09 06:58:10;;;;;;;0.90;0.90;;;;;;;;;;10484658;28;20631;-71
2022/11/09 07:03:17;;;;;;;1.13;0.98;;;;;;;;;;10473392;28;20632;-69
2022/11/09 07:08:19;;;;;;;0.98;0.98;;;;;;;;;;10474867;28;20264;-70
2022/11/09 07:13:20;;;;;;;1.02;1.02;;;;;;;;;;10478504;28;20690;-70
2022/11/09 07:18:21;;;;;;;0.98;0.77;;;;;;;;;;10479655;28;20229;-72
2022/11/09 07:23:22;;;;;;;0.70;0.70;;;;;;;;;;10480441;28;20218;-72
2022/11/09 07:28:23;;;;;;;1.77;1.10;;;;;;;;;;10455346;28;20217;-73
2022/11/09 07:33:25;;;;;;;0.52;0.52;;;;;;;;;;10478506;28;20624;-72
2022/11/09 07:38:28;;;;;;;0.60;0.60;;;;;;;;;;10476575;28;20218;-72
2022/11/09 07:43:29;;;;;;;0.85;0.73;;;;;;;;;;10476201;28;20745;-72
2022/11/09 07:48:32;;;;;;;4.88;0.60;;;;;;;;;;10450804;28;20937;-72
2022/11/09 07:53:33;;;;;;;1.15;0.60;;;;;;;;;;10474141;28;21004;-72
2022/11/09 07:58:35;;;;;;;1.50;0.55;;;;;;;;;;10480230;28;20218;-73
2022/11/09 08:03:36;;;;;;;0.43;0.43;;;;;;;;;;10482222;28;20242;-72
2022/11/09 08:08:38;;;;;;;0.50;0.50;;;;;;;;;;10486523;28;20222;-72
2022/11/09 08:13:39;;;;;;;0.60;0.60;;;;;;;;;;10476240;28;20225;-73
2022/11/09 08:18:40;;;;;;;0.75;0.63;;;;;;;;;;10455963;28;20671;-72
2022/11/09 08:23:41;;;;;;;1.25;0.50;;;;;;;;;;10434094;28;20783;-73
2022/11/09 08:28:42;;;;;;;0.82;0.47;;;;;;;;;;10431584;28;20222;-73
2022/11/09 08:33:43;;;;;;;1.05;0.50;;;;;;;;;;10397219;28;20210;-72
2022/11/09 08:38:45;;;;;;;0.50;0.50;;;;;;;;;;10442290;28;20585;-72
2022/11/09 08:43:46;;;;;;;0.52;0.52;;;;;;;;;;10448695;28;20582;-72
2022/11/09 08:48:47;;;;;;;0.55;0.55;;;;;;;;;;10425019;28;20236;-73
2022/11/09 08:53:49;;;;;;;1.25;0.60;;;;;;;;;;10423573;28;20598;-72
2022/11/09 08:58:50;;;;;;;0.30;0.30;;;;;;;;;;10427113;28;20218;-72
2022/11/09 09:03:51;;;;;;;0.50;0.50;;;;;;;;;;10443994;28;20222;-72
2022/11/09 09:08:52;;;;;;;0.88;0.50;;;;;;;;;;10443819;28;20252;-73
2022/11/09 09:13:54;;;;;;;0.60;0.50;;;;;;;;;;10442375;28;20222;-72
2022/11/09 09:18:55;;;;;;;0.60;0.60;;;;;;;;;;10440794;28;20269;-73
2022/11/09 09:23:56;;;;;;;1.50;0.50;;;;;;;;;;10440260;28;20241;-72
2022/11/09 09:28:57;;;;;;;1.65;0.50;;;;;;;;;;10450896;28;21037;-72
2022/11/09 09:33:58;;;;;;;0.50;0.50;;;;;;;;;;10425316;28;20215;-73
2022/11/09 09:38:59;;;;;;;0.75;0.50;;;;;;;;;;10420979;28;20210;-73
2022/11/09 09:44:07;;;;;;;0.57;0.57;;;;;;;;;;10423463;28;20260;-73
2022/11/09 09:49:14;;;;;;;0.40;0.40;;;;;;;;;;10425334;28;20248;-71
2022/11/09 09:54:19;;;;;;;0.40;0.40;;;;;;;;;;10446222;28;20655;-70
2022/11/09 09:59:20;;;;;;;0.50;0.50;;;;;;;;;;10443725;28;20207;-72
2022/11/09 10:04:32;;;;;;;0.50;0.50;;;;;;;;;;10440838;28;20222;-72
2022/11/09 10:09:51;;;;;;;0.50;0.50;;;;;;;;;;10436912;28;20198;-71
2022/11/09 10:14:53;;;;;;;0.40;0.40;;;;;;;;;;10439861;28;20704;-70
2022/11/09 10:20:23;;;;;;;0.40;0.40;;;;;;;;;;10420130;28;20222;-72
2022/11/09 10:25:25;;;;;;;0.40;0.40;;;;;;;;;;10380825;28;20762;-71
2022/11/09 10:30:28;;;;;;;0.30;0.30;;;;;;;;;;10433642;28;20271;-72
2022/11/09 10:35:32;;;;;;;2.30;0.30;;;;;;;;;;10436023;28;20589;-68
2022/11/09 10:40:33;;;;;;;0.22;0.22;;;;;;;;;;10415898;28;20220;-67
2022/11/09 10:46:20;;;;;;;0.40;0.40;;;;;;;;;;10452509;28;20793;-66
2022/11/09 10:51:41;;;;;;;0.30;0.30;;;;;;;;;;10437427;28;20210;-69
2022/11/09 10:57:04;;;;;;;0.40;0.28;;;;;;;;;;10416723;28;20223;-70
2022/11/09 11:02:27;;;;;;;0.30;0.30;;;;;;;;;;10436501;28;20222;-70
2022/11/09 11:07:47;;;;;;;0.30;0.30;;;;;;;;;;10428760;28;20341;-69
2022/11/09 11:13:07;;;;;;;0.30;0.30;;;;;;;;;;10417038;28;20222;-69
2022/11/09 11:18:27;;;;;;;0.40;0.40;;;;;;;;;;10435280;28;20250;-71
2022/11/09 11:24:07;;;;;;;0.30;0.30;;;;;;;;;;10429439;28;20211;-72
2022/11/09 11:29:27;;;;;;;0.60;0.60;;;;;;;;;;10421268;28;20438;-72
2022/11/09 11:34:47;;;;;;;0.70;0.70;;;;;;;;;;10431699;28;20206;-73
2022/11/09 11:40:18;;;;;;;0.35;0.35;;;;;;;;;;10446455;28;20211;-72
2022/11/09 11:45:41;;;;;;;0.40;0.40;;;;;;;;;;10435294;28;20226;-72
2022/11/09 11:51:04;;;;;;;0.40;0.40;;;;;;;;;;10420748;28;20222;-72
2022/11/09 11:56:27;;;;;;;0.30;0.30;;;;;;;;;;10433340;28;20686;-72
2022/11/09 12:02:13;;;;;;;1.27;0.50;;;;;;;;;;10436236;28;20219;-73
2022/11/09 12:07:42;;;;;;;0.20;0.20;;;;;;;;;;10434304;28;20222;-73
2022/11/09 12:13:20;;;;;;;0.93;0.20;;;;;;;;;;10440627;28;20218;-73
2022/11/09 12:18:45;;;;;;;0.20;0.20;;;;;;;;;;10426835;28;20227;-73
2022/11/09 12:24:16;;;;;;;0.10;0.10;;;;;;;;;;10441163;28;20217;-71
2022/11/09 12:29:48;;;;;;;0.20;0.20;;;;;;;;;;10440635;28;20218;-73
2022/11/09 12:35:16;;;;;;;0.10;0.10;;;;;;;;;;10441680;28;20211;-73
2022/11/09 12:40:42;;;;;;;0.57;0.22;;;;;;;;;;10427088;28;20210;-72
2022/11/09 12:46:04;;;;;;;0.15;0.10;;;;;;;;;;10447334;28;20227;-72
2022/11/09 12:51:23;;;;;;;0.20;0.20;;;;;;;;;;10455102;28;20260;-73
2022/11/09 12:56:50;;;;;;;1.00;0.20;;;;;;;;;;10457216;28;20202;-72
2022/11/09 13:02:19;;;;;;;0.20;0.20;;;;;;;;;;10443042;28;20220;-73
2022/11/09 13:07:42;;;;;;;1.55;0.20;;;;;;;;;;10438986;28;20222;-73
2022/11/09 13:13:21;;;;;;;0.20;0.20;;;;;;;;;;10442281;28;20226;-72
2022/11/09 13:18:41;;;;;;;0.45;0.20;;;;;;;;;;10439497;28;21163;-73
2022/11/09 13:24:20;;;;;;;1.20;0.20;;;;;;;;;;10451177;28;20230;-72
2022/11/09 13:29:40;;;;;;;0.30;0.30;;;;;;;;;;10423891;28;20211;-71
2022/11/09 13:35:00;;;;;;;0.40;0.40;;;;;;;;;;10437345;28;20202;-69
2022/11/09 13:40:30;;;;;;;0.15;0.15;;;;;;;;;;10431791;28;20214;-69
2022/11/09 13:45:54;;;;;;;0.82;0.20;;;;;;;;;;10443276;28;20309;-73
2022/11/09 13:51:16;;;;;;;0.93;0.20;;;;;;;;;;10416281;28;20230;-73
2022/11/09 13:56:38;;;;;;;0.98;0.40;;;;;;;;;;10405716;28;20219;-71
2022/11/09 14:01:59;;;;;;;0.20;0.20;;;;;;;;;;10440126;28;20215;-70
2022/11/09 14:07:26;;;;;;;0.30;0.30;;;;;;;;;;10440690;28;20706;-70
2022/11/09 14:12:45;;;;;;;0.10;0.10;;;;;;;;;;10439171;28;20922;-69
2022/11/09 14:18:09;;;;;;;0.10;0.10;;;;;;;;;;10438491;28;20229;-73
2022/11/09 14:23:31;;;;;;;0.10;0.10;;;;;;;;;;10435203;28;20696;-73
2022/11/09 14:28:51;;;;;;;2.17;0.20;;;;;;;;;;10428458;28;20215;-73
2022/11/09 14:34:15;;;;;;;5.47;0.20;;;;;;;;;;10414799;28;20214;-73
2022/11/09 14:39:36;;;;;;;0.20;0.20;;;;;;;;;;10441818;28;20210;-73
2022/11/09 14:44:57;;;;;;;0.20;0.20;;;;;;;;;;10432321;28;20305;-71
2022/11/09 14:50:18;;;;;;;0.30;0.30;;;;;;;;;;10431881;28;20289;-71
2022/11/09 14:55:40;;;;;;;1.75;0.30;;;;;;;;;;10441173;28;20218;-71
2022/11/09 15:01:19;;;;;;;0.13;0.13;;;;;;;;;;10433806;28;20215;-71
2022/11/09 15:06:50;;;;;;;0.28;0.10;;;;;;;;;;10438765;28;20223;-71
2022/11/09 15:12:14;;;;;;;0.32;0.22;;;;;;;;;;10418800;28;20210;-72
2022/11/09 15:17:35;;;;;;;0.50;0.50;;;;;;;;;;10416536;28;20227;-72
2022/11/09 15:22:57;;;;;;;0.45;0.45;;;;;;;;;;10436661;28;20234;-71
2022/11/09 15:28:19;;;;;;;1.00;0.30;;;;;;;;;;10430788;28;20219;-71
2022/11/09 15:33:44;;;;;;;0.30;0.30;;;;;;;;;;10439532;28;20215;-72
2022/11/09 15:39:04;;;;;;;2.58;2.47;;;;;;;;;;10426623;28;20933;-70
2022/11/09 15:44:24;;;;;;;3.03;2.40;;;;;;;;;;10426982;28;20215;-71
2022/11/09 15:49:44;;;;;;;3.95;3.67;;;;;;;;;;10435254;28;20234;-72
2022/11/09 15:55:04;;;;;;;3.38;2.15;;;;;;;;;;10417858;28;20215;-71
2022/11/09 16:00:24;;;;;;;34.05;15.85;;;;;;;;;;10432007;28;20222;-72
2022/11/09 16:05:44;;;;;;;55.65;23.95;;;;;;;;;;10431482;28;20222;-70
2022/11/09 16:11:04;;;;;;;37.90;16.80;;;;;;;;;;10432913;28;20222;-71
2022/11/09 16:16:24;;;;;;;22.58;9.48;;;;;;;;;;10434923;28;20756;-71
2022/11/09 16:21:44;;;;;;;34.95;13.68;;;;;;;;;;10417641;28;20248;-72
2022/11/09 16:27:05;;;;;;;37.40;15.50;;;;;;;;;;10424846;28;20777;-71
2022/11/09 16:32:25;;;;;;;5.07;3.17;;;;;;;;;;10403643;28;20211;-71
2022/11/09 16:37:49;;;;;;;2.90;2.72;;;;;;;;;;10431969;28;20590;-71
2022/11/09 16:43:08;;;;;;;0.63;0.57;;;;;;;;;;10430825;28;21138;-71
2022/11/09 16:48:31;;;;;;;0.80;0.70;;;;;;;;;;10429270;28;20313;-71
2022/11/09 16:53:51;;;;;;;4.03;2.95;;;;;;;;;;10430832;28;20214;-71
2022/11/09 16:59:11;;;;;;;2.00;1.90;;;;;;;;;;10452723;28;20616;-72
2022/11/09 17:04:31;;;;;;;1.00;1.00;;;;;;;;;;10443392;28;20305;-72
2022/11/09 17:09:51;;;;;;;1.20;1.20;;;;;;;;;;10437784;28;20207;-71
2022/11/09 17:15:11;;;;;;;3.92;3.53;;;;;;;;;;10452904;28;20211;-71
2022/11/09 17:20:31;;;;;;;2.08;1.98;;;;;;;;;;10439233;28;20227;-71
2022/11/09 17:25:55;;;;;;;1.10;1.10;;;;;;;;;;10435769;28;20266;-72
2022/11/09 17:31:19;;;;;;;0.70;0.70;;;;;;;;;;10437281;28;20214;-72
2022/11/09 17:36:39;;;;;;;1.25;1.08;;;;;;;;;;10450953;28;20211;-72
2022/11/09 17:41:59;;;;;;;2.15;0.80;;;;;;;;;;10446231;28;20301;-69
2022/11/09 17:47:18;;;;;;;0.90;0.90;;;;;;;;;;10441834;28;20632;-71
2022/11/09 17:52:38;;;;;;;0.70;0.70;;;;;;;;;;10442535;28;20214;-65
2022/11/09 17:57:58;;;;;;;0.68;0.60;;;;;;;;;;10445890;28;20222;-65
2022/11/09 18:03:19;;;;;;;2.75;0.40;;;;;;;;;;10444894;28;20585;-66
2022/11/09 18:08:39;;;;;;;0.47;0.38;;;;;;;;;;10426592;28;20222;-67
2022/11/09 18:13:59;;;;;;;0.60;0.60;;;;;;;;;;10443116;28;20215;-66
2022/11/09 18:19:19;;;;;;;0.40;0.40;;;;;;;;;;10448297;28;20280;-70
2022/11/09 18:24:39;;;;;;;0.98;0.40;;;;;;;;;;10442860;28;20725;-69
2022/11/09 18:30:01;;;;;;;0.40;0.40;;;;;;;;;;10447208;28;20199;-66
2022/11/09 18:35:21;;;;;;;2.38;0.73;;;;;;;;;;10426535;28;20215;-67
2022/11/09 18:40:40;;;;;;;0.85;0.75;;;;;;;;;;10430923;28;20226;-67
2022/11/09 18:46:01;;;;;;;1.52;1.38;;;;;;;;;;10437493;28;20230;-70
2022/11/09 18:51:21;;;;;;;0.85;0.63;;;;;;;;;;10436851;28;20297;-69
2022/11/09 18:56:41;;;;;;;1.15;0.77;;;;;;;;;;10436184;28;20218;-69
2022/11/09 19:02:01;;;;;;;1.73;0.80;;;;;;;;;;10431155;28;20219;-72
2022/11/09 19:07:21;;;;;;;4.78;0.63;;;;;;;;;;10437671;28;20595;-71
2022/11/09 19:12:41;;;;;;;1.02;0.40;;;;;;;;;;10431385;28;20304;-71
2022/11/09 19:18:01;;;;;;;4.03;3.72;;;;;;;;;;10428947;28;20740;-71
2022/11/09 19:23:21;;;;;;;0.90;0.90;;;;;;;;;;10431343;28;20238;-67
2022/11/09 19:28:41;;;;;;;0.50;0.50;;;;;;;;;;10433284;28;20214;-68
2022/11/09 19:34:01;;;;;;;0.93;0.55;;;;;;;;;;10431983;28;20218;-68
2022/11/09 19:39:21;;;;;;;0.65;0.65;;;;;;;;;;10430749;28;20206;-70
2022/11/09 19:44:40;;;;;;;0.95;0.63;;;;;;;;;;10444792;28;20226;-69
2022/11/09 19:50:00;;;;;;;1.60;0.75;;;;;;;;;;10446122;28;20198;-70
2022/11/09 19:55:19;;;;;;;0.85;0.50;;;;;;;;;;10415187;28;20302;-68
2022/11/09 20:00:39;;;;;;;0.90;0.90;;;;;;;;;;10432641;28;20265;-67
2022/11/09 20:05:59;;;;;;;0.63;0.63;;;;;;;;;;10434685;28;20218;-67
2022/11/09 20:16:59;;;;;;;0.50;0.50;;;;;;;;;;10430089;28;20941;-68
2022/11/09 20:22:19;;;;;;;0.90;0.90;;;;;;;;;;10391249;28;20215;-72
2022/11/09 20:27:39;;;;;;;1.02;1.00;;;;;;;;;;10375329;28;20223;-70
2022/11/09 20:33:00;;;;;;;1.58;0.52;;;;;;;;;;10397058;28;20735;-69
2022/11/09 20:38:20;;;;;;;0.90;0.70;;;;;;;;;;10402557;28;20246;-69
2022/11/09 20:43:40;;;;;;;0.80;0.80;;;;;;;;;;10399811;28;20237;-72
2022/11/09 20:49:00;;;;;;;3.85;0.52;;;;;;;;;;10399772;28;20219;-71
2022/11/09 20:54:20;;;;;;;1.27;0.65;;;;;;;;;;10384516;28;20214;-71
2022/11/09 20:59:39;;;;;;;1.27;0.60;;;;;;;;;;10399918;28;20207;-71
2022/11/09 21:04:59;;;;;;;2.67;0.85;;;;;;;;;;10396815;28;20260;-72
2022/11/09 21:10:19;;;;;;;1.08;0.70;;;;;;;;;;10401179;28;20219;-72
2022/11/09 21:15:38;;;;;;;0.50;0.50;;;;;;;;;;10397385;28;20711;-70
2022/11/09 21:21:17;;;;;;;2.97;0.60;;;;;;;;;;10435463;28;20223;-69
2022/11/09 21:32:15;;;;;;;3.15;0.50;;;;;;;;;;10439314;28;20211;-70
2022/11/09 21:37:35;;;;;;;0.52;0.52;;;;;;;;;;10437212;28;20230;-70
2022/11/09 21:42:55;;;;;;;0.45;0.45;;;;;;;;;;10416366;28;20215;-72
2022/11/09 21:48:15;;;;;;;0.40;0.40;;;;;;;;;;10437946;28;20232;-71
2022/11/09 21:53:36;;;;;;;0.40;0.40;;;;;;;;;;10439596;28;20598;-71
2022/11/09 21:58:55;;;;;;;1.83;0.60;;;;;;;;;;10437196;28;20207;-72
2022/11/09 22:04:15;;;;;;;0.73;0.50;;;;;;;;;;10437694;28;20305;-69
2022/11/09 22:09:36;;;;;;;0.55;0.40;;;;;;;;;;10434869;28;20219;-69
2022/11/09 22:20:53;;;;;;;0.47;0.47;;;;;;;;;;10436788;28;20222;-69
2022/11/09 22:26:14;;;;;;;2.10;0.40;;;;;;;;;;10438748;28;20222;-69
2022/11/09 22:31:33;;;;;;;1.02;0.60;;;;;;;;;;10420866;28;20203;-69
2022/11/09 22:36:53;;;;;;;0.60;0.60;;;;;;;;;;10437159;28;20242;-69
2022/11/09 22:42:13;;;;;;;1.42;0.80;;;;;;;;;;10440230;28;20593;-69
2022/11/09 22:47:33;;;;;;;3.25;0.80;;;;;;;;;;10439421;28;20317;-69
2022/11/09 22:52:56;;;;;;;0.73;0.50;;;;;;;;;;10434928;28;20211;-70
2022/11/09 22:58:15;;;;;;;2.30;0.55;;;;;;;;;;10435620;28;20264;-69
2022/11/09 23:03:35;;;;;;;2.05;0.50;;;;;;;;;;10436885;28;20780;-69
2022/11/09 23:08:55;;;;;;;0.43;0.43;;;;;;;;;;10423260;28;20624;-70
2022/11/09 23:15:02;;;;;;;5.63;0.30;;;;;;;;;;10439412;28;20269;-69
2022/11/09 23:19:54;;;;;;;0.40;0.40;;;;;;;;;;10438018;28;20234;-71
2022/11/09 23:30:53;;;;;;;5.35;0.70;;;;;;;;;;10431426;28;20238;-72
2022/11/09 23:36:13;;;;;;;1.05;0.45;;;;;;;;;;10414471;28;20210;-69
2022/11/09 23:41:33;;;;;;;0.32;0.32;;;;;;;;;;10436204;28;20233;-69
2022/11/09 23:46:53;;;;;;;2.03;0.40;;;;;;;;;;10417526;28;20214;-69
2022/11/09 23:52:13;;;;;;;0.30;0.22;;;;;;;;;;10435547;28;20214;-69
2022/11/09 23:57:32;;;;;;;4.60;0.45;;;;;;;;;;10434848;28;20333;-68
